| << 28.8. | 30.8. >> |
|
Windrichtung in Grad |
Windgeschw. in m/s |
Windspitzen in m/s |
Temp.Minima in °C |
Temperatur in °C |
Temp.Maxima in °C |
Luftfeuchte in % |
Luftdruck in hPa |
Taupunkt in °C |
Niederschlag in mm |
|
|---|---|---|---|---|---|---|---|---|---|---|
| ▲ Maxima | 1,9 | 5,9 | 23,0 | 23,4 | 23,9 | 82,5 | 1000,7 | 16,0 | 0,0 | |
| Ø Mittelwert | 203,1 | 1,1 | 3,1 | 17,7 | 18,0 | 18,2 | 72,0 | 999,5 | 14,0 | 0,0 |
| ▼ Minima | 0,3 | 0,9 | 14,1 | 14,3 | 14,5 | 50,3 | 997,1 | 12,4 | 0,0 | |
| ∑ Summe | 0,0 |
| Uhrzeit (MEZ) | Windrichtung in Grad | Windgeschw. in m/s | Windspitzen in m/s | Temp.Minima in °C | Temperatur in °C | Temp.Maxima in °C | Luftfeuchte in % | Luftdruck in hPa | Taupunkt in °C | Niederschlag in mm |
|---|---|---|---|---|---|---|---|---|---|---|
| 00:00 | 190,7 | 0,7 | 2,0 | 14,7 | 14,9 | 15,2 | 78,1 | 1000,5 | 12,6 | 0,0 |
| 00:10 | 184,3 | 0,7 | 1,8 | 14,7 | 14,9 | 15,1 | 78,1 | 1000,5 | 12,5 | 0,0 |
| 00:20 | 185,7 | 0,7 | 1,9 | 14,6 | 14,8 | 15,0 | 77,9 | 1000,5 | 12,4 | 0,0 |
| 00:30 | 180,3 | 0,8 | 2,2 | 14,5 | 14,7 | 14,9 | 78,1 | 1000,5 | 12,4 | 0,0 |
| 00:40 | 188,6 | 0,9 | 1,9 | 14,5 | 14,7 | 14,9 | 78,2 | 1000,6 | 12,4 | 0,0 |
| 00:50 | 215,3 | 0,9 | 2,3 | 14,5 | 14,7 | 14,9 | 78,4 | 1000,5 | 12,4 | 0,0 |
| 01:00 | 208,3 | 0,7 | 1,7 | 14,4 | 14,6 | 14,9 | 78,6 | 1000,5 | 12,4 | 0,0 |
| 01:10 | 218,2 | 0,9 | 4,0 | 14,5 | 14,7 | 14,9 | 78,7 | 1000,6 | 12,4 | 0,0 |
| 01:20 | 220,4 | 1,1 | 3,2 | 14,5 | 14,8 | 15,0 | 78,6 | 1000,5 | 12,5 | 0,0 |
| 01:30 | 219,1 | 1,2 | 3,1 | 14,6 | 14,8 | 14,9 | 78,8 | 1000,6 | 12,5 | 0,0 |
| 01:40 | 225,9 | 1,1 | 3,4 | 14,5 | 14,7 | 14,9 | 79,1 | 1000,6 | 12,5 | 0,0 |
| 01:50 | 221,2 | 1,1 | 4,2 | 14,4 | 14,7 | 14,9 | 79,4 | 1000,6 | 12,5 | 0,0 |
| 02:00 | 212,9 | 1,0 | 2,3 | 14,5 | 14,6 | 14,8 | 79,6 | 1000,6 | 12,6 | 0,0 |
| 02:10 | 213,9 | 0,6 | 2,4 | 14,5 | 14,6 | 14,8 | 79,8 | 1000,6 | 12,6 | 0,0 |
| 02:20 | 196,8 | 0,7 | 1,8 | 14,4 | 14,6 | 14,8 | 79,8 | 1000,6 | 12,6 | 0,0 |
| 02:30 | 200,8 | 0,8 | 2,3 | 14,4 | 14,7 | 14,9 | 79,7 | 1000,6 | 12,6 | 0,0 |
| 02:40 | 188,4 | 0,9 | 3,2 | 14,5 | 14,7 | 14,9 | 79,7 | 1000,6 | 12,6 | 0,0 |
| 02:50 | 204,8 | 0,9 | 2,3 | 14,5 | 14,6 | 14,9 | 79,8 | 1000,5 | 12,6 | 0,0 |
| 03:00 | 210,8 | 1,1 | 2,6 | 14,4 | 14,7 | 14,8 | 79,9 | 1000,5 | 12,6 | 0,0 |
| 03:10 | 201,8 | 0,9 | 2,8 | 14,4 | 14,6 | 14,8 | 79,7 | 1000,5 | 12,6 | 0,0 |
| 03:20 | 210,6 | 1,1 | 2,4 | 14,4 | 14,6 | 14,8 | 79,9 | 1000,4 | 12,6 | 0,0 |
| 03:30 | 218,4 | 1,0 | 2,9 | 14,4 | 14,6 | 14,7 | 80,1 | 1000,4 | 12,6 | 0,0 |
| 03:40 | 221,6 | 1,0 | 2,7 | 14,4 | 14,5 | 14,7 | 80,1 | 1000,4 | 12,6 | 0,0 |
| 03:50 | 225,4 | 1,2 | 2,8 | 14,4 | 14,6 | 14,7 | 80,0 | 1000,4 | 12,5 | 0,0 |
| 04:00 | 199,9 | 1,0 | 2,5 | 14,4 | 14,6 | 14,8 | 79,8 | 1000,4 | 12,5 | 0,0 |
| 04:10 | 195,2 | 0,9 | 2,1 | 14,4 | 14,6 | 14,8 | 79,4 | 1000,4 | 12,5 | 0,0 |
| 04:20 | 196,3 | 0,8 | 2,3 | 14,4 | 14,5 | 14,8 | 79,4 | 1000,4 | 12,5 | 0,0 |
| 04:30 | 190,9 | 0,9 | 2,8 | 14,4 | 14,5 | 14,7 | 79,7 | 1000,3 | 12,5 | 0,0 |
| 04:40 | 196,9 | 0,9 | 2,6 | 14,3 | 14,5 | 14,7 | 80,1 | 1000,3 | 12,5 | 0,0 |
| 04:50 | 192,2 | 0,9 | 3,1 | 14,2 | 14,4 | 14,7 | 80,4 | 1000,2 | 12,5 | 0,0 |
| 05:00 | 209,2 | 1,0 | 2,9 | 14,1 | 14,4 | 14,6 | 80,8 | 1000,2 | 12,6 | 0,0 |
| 05:10 | 212,7 | 0,8 | 1,8 | 14,2 | 14,3 | 14,5 | 80,9 | 1000,2 | 12,6 | 0,0 |
| 05:20 | 212,4 | 0,8 | 3,1 | 14,2 | 14,3 | 14,6 | 80,9 | 1000,2 | 12,6 | 0,0 |
| 05:30 | 209,6 | 0,8 | 2,3 | 14,1 | 14,3 | 14,6 | 81,1 | 1000,2 | 12,6 | 0,0 |
| 05:40 | 211,9 | 0,8 | 1,9 | 14,1 | 14,4 | 14,6 | 81,1 | 1000,1 | 12,6 | 0,0 |
| 05:50 | 213,1 | 0,9 | 3,0 | 14,2 | 14,4 | 14,7 | 81,0 | 1000,1 | 12,6 | 0,0 |
| 06:00 | 212,4 | 0,9 | 3,0 | 14,3 | 14,6 | 14,9 | 80,5 | 1000,1 | 12,7 | 0,0 |
| 06:10 | 225,4 | 0,9 | 2,7 | 14,5 | 14,7 | 14,9 | 80,1 | 1000,1 | 12,7 | 0,0 |
| 06:20 | 220,1 | 0,9 | 2,6 | 14,5 | 14,8 | 15,0 | 80,0 | 1000,2 | 12,8 | 0,0 |
| 06:30 | 223,5 | 0,9 | 2,2 | 14,4 | 14,7 | 15,0 | 80,7 | 1000,3 | 12,8 | 0,0 |
| 06:40 | 216,9 | 1,0 | 3,0 | 14,4 | 14,8 | 15,2 | 81,1 | 1000,3 | 13,0 | 0,0 |
| 06:50 | 229,8 | 0,7 | 2,0 | 14,8 | 15,2 | 15,7 | 79,7 | 1000,3 | 13,2 | 0,0 |
| 07:00 | 228,8 | 0,7 | 2,0 | 15,5 | 15,8 | 16,3 | 78,0 | 1000,3 | 13,4 | 0,0 |
| 07:10 | 226,8 | 1,0 | 2,3 | 15,9 | 16,2 | 16,4 | 76,8 | 1000,4 | 13,5 | 0,0 |
| 07:20 | 220,8 | 1,0 | 3,1 | 15,8 | 16,1 | 16,4 | 77,1 | 1000,5 | 13,5 | 0,0 |
| 07:30 | 226,6 | 1,2 | 5,2 | 16,0 | 16,3 | 16,6 | 76,7 | 1000,5 | 13,5 | 0,0 |
| 07:40 | 224,9 | 0,9 | 2,5 | 16,0 | 16,3 | 16,6 | 76,8 | 1000,5 | 13,6 | 0,0 |
| 07:50 | 224,6 | 0,9 | 2,9 | 16,3 | 16,9 | 17,3 | 75,3 | 1000,5 | 13,8 | 0,0 |
| Uhrzeit (MEZ) | Windrichtung in Grad | Windgeschw. in m/s | Windspitzen in m/s | Temp.Minima in °C | Temperatur in °C | Temp.Maxima in °C | Luftfeuchte in % | Luftdruck in hPa | Taupunkt in °C | Niederschlag in mm |
|---|---|---|---|---|---|---|---|---|---|---|
| 08:00 | 215,8 | 1,0 | 2,9 | 17,1 | 17,5 | 17,9 | 73,3 | 1000,5 | 14,0 | 0,0 |
| 08:10 | 212,9 | 1,3 | 3,4 | 17,6 | 17,9 | 18,1 | 71,7 | 1000,5 | 14,0 | 0,0 |
| 08:20 | 185,6 | 1,1 | 3,1 | 17,9 | 18,4 | 18,8 | 70,5 | 1000,5 | 14,2 | 0,0 |
| 08:30 | 215,7 | 1,6 | 5,1 | 18,4 | 18,7 | 18,9 | 69,0 | 1000,6 | 14,1 | 0,0 |
| 08:40 | 199,8 | 1,2 | 4,2 | 18,7 | 18,9 | 19,1 | 68,2 | 1000,6 | 14,1 | 0,0 |
| 08:50 | 198,1 | 1,3 | 4,4 | 19,0 | 19,3 | 19,5 | 66,5 | 1000,6 | 14,0 | 0,0 |
| 09:00 | 234,9 | 1,1 | 4,8 | 19,0 | 19,3 | 19,7 | 66,5 | 1000,6 | 14,1 | 0,0 |
| 09:10 | 199,1 | 1,4 | 4,1 | 19,2 | 19,5 | 19,8 | 65,7 | 1000,6 | 14,1 | 0,0 |
| 09:20 | 200,1 | 1,1 | 3,9 | 19,3 | 19,7 | 20,2 | 65,2 | 1000,6 | 14,2 | 0,0 |
| 09:30 | 221,2 | 1,7 | 4,0 | 19,5 | 20,0 | 20,2 | 63,7 | 1000,6 | 13,9 | 0,0 |
| 09:40 | 233,6 | 1,1 | 3,7 | 19,3 | 19,6 | 19,9 | 64,4 | 1000,7 | 13,9 | 0,0 |
| 09:50 | 225,2 | 1,3 | 3,6 | 19,8 | 20,1 | 20,5 | 63,5 | 1000,6 | 14,1 | 0,0 |
| 10:00 | 191,9 | 1,1 | 3,4 | 20,3 | 20,6 | 20,9 | 61,7 | 1000,7 | 14,1 | 0,0 |
| 10:10 | 186,8 | 1,2 | 4,0 | 20,5 | 21,0 | 21,4 | 59,8 | 1000,7 | 14,0 | 0,0 |
| 10:20 | 236,5 | 1,2 | 4,4 | 20,5 | 20,8 | 21,1 | 60,4 | 1000,6 | 13,9 | 0,0 |
| 10:30 | 183,7 | 1,3 | 3,1 | 21,0 | 21,5 | 21,7 | 58,3 | 1000,6 | 14,0 | 0,0 |
| 10:40 | 212,2 | 1,6 | 3,3 | 21,0 | 21,4 | 21,6 | 58,4 | 1000,5 | 13,8 | 0,0 |
| 10:50 | 236,1 | 1,7 | 3,9 | 20,4 | 20,8 | 21,1 | 59,1 | 1000,4 | 13,6 | 0,0 |
| 11:00 | 242,7 | 1,8 | 4,7 | 20,5 | 20,8 | 21,0 | 59,2 | 1000,5 | 13,5 | 0,0 |
| 11:10 | 237,4 | 1,7 | 4,9 | 20,1 | 20,4 | 20,6 | 58,8 | 1000,5 | 13,1 | 0,0 |
| 11:20 | 229,9 | 1,5 | 3,1 | 20,2 | 20,6 | 20,8 | 58,4 | 1000,5 | 13,1 | 0,0 |
| 11:30 | 239,5 | 1,3 | 4,5 | 20,1 | 20,5 | 20,7 | 58,9 | 1000,4 | 13,2 | 0,0 |
| 11:40 | 243,6 | 1,1 | 4,4 | 20,6 | 21,1 | 21,7 | 57,5 | 1000,3 | 13,5 | 0,0 |
| 11:50 | 241,1 | 1,4 | 5,0 | 20,7 | 21,1 | 21,6 | 57,1 | 1000,3 | 13,3 | 0,0 |
| 12:00 | 235,7 | 1,3 | 3,6 | 20,7 | 21,1 | 21,3 | 57,1 | 1000,3 | 13,3 | 0,0 |
| 12:10 | 243,2 | 1,6 | 4,0 | 20,8 | 21,2 | 21,5 | 57,0 | 1000,2 | 13,3 | 0,0 |
| 12:20 | 234,1 | 1,9 | 5,4 | 21,5 | 21,9 | 22,4 | 54,2 | 1000,0 | 13,1 | 0,0 |
| 12:30 | 235,7 | 1,5 | 4,6 | 22,0 | 22,3 | 22,5 | 54,1 | 999,8 | 13,5 | 0,0 |
| 12:40 | 227,6 | 1,9 | 5,9 | 21,6 | 22,1 | 22,5 | 53,5 | 999,8 | 13,1 | 0,0 |
| 12:50 | 234,7 | 1,2 | 5,3 | 22,0 | 22,4 | 22,8 | 53,5 | 999,6 | 13,4 | 0,0 |
| 13:00 | 185,6 | 1,3 | 4,2 | 22,2 | 23,0 | 23,2 | 51,2 | 999,5 | 13,2 | 0,0 |
| 13:10 | 200,8 | 1,3 | 4,3 | 23,0 | 23,4 | 23,9 | 50,3 | 999,5 | 13,3 | 0,0 |
| 13:20 | 198,9 | 1,5 | 3,6 | 22,5 | 23,2 | 23,9 | 50,3 | 999,4 | 13,1 | 0,0 |
| 13:30 | 211,5 | 1,3 | 4,9 | 22,4 | 22,6 | 22,8 | 51,8 | 999,4 | 13,1 | 0,0 |
| 13:40 | 213,9 | 1,4 | 4,0 | 22,2 | 22,4 | 22,6 | 52,5 | 999,4 | 13,1 | 0,0 |
| 13:50 | 225,0 | 1,5 | 3,9 | 22,1 | 22,3 | 22,5 | 53,5 | 999,4 | 13,3 | 0,0 |
| 14:00 | 203,5 | 1,3 | 3,9 | 22,0 | 22,2 | 22,4 | 54,1 | 999,4 | 13,5 | 0,0 |
| 14:10 | 196,3 | 1,7 | 5,0 | 22,0 | 22,2 | 22,3 | 54,0 | 999,4 | 13,4 | 0,0 |
| 14:20 | 217,2 | 1,5 | 4,7 | 21,5 | 21,9 | 22,2 | 54,1 | 999,3 | 13,2 | 0,0 |
| 14:30 | 186,2 | 1,3 | 5,3 | 21,7 | 21,8 | 22,0 | 55,0 | 999,4 | 13,4 | 0,0 |
| 14:40 | 196,0 | 1,6 | 3,9 | 21,1 | 21,6 | 21,9 | 55,6 | 999,4 | 13,3 | 0,0 |
| 14:50 | 198,3 | 1,5 | 4,1 | 21,1 | 21,3 | 21,5 | 57,0 | 999,5 | 13,4 | 0,0 |
| 15:00 | 195,7 | 1,8 | 4,1 | 20,7 | 21,0 | 21,2 | 59,0 | 999,4 | 13,6 | 0,0 |
| 15:10 | 206,2 | 1,9 | 4,7 | 20,3 | 20,5 | 20,7 | 61,7 | 999,4 | 13,9 | 0,0 |
| 15:20 | 210,6 | 1,8 | 4,6 | 19,6 | 20,0 | 20,3 | 65,6 | 999,4 | 14,4 | 0,0 |
| 15:30 | 206,4 | 1,6 | 3,7 | 19,0 | 19,3 | 19,7 | 70,5 | 999,4 | 15,0 | 0,0 |
| 15:40 | 205,6 | 1,2 | 3,4 | 19,0 | 19,2 | 19,4 | 70,9 | 999,3 | 15,0 | 0,0 |
| 15:50 | 213,2 | 1,0 | 3,8 | 19,1 | 19,4 | 19,8 | 69,9 | 999,3 | 15,0 | 0,0 |
| Uhrzeit (MEZ) | Windrichtung in Grad | Windgeschw. in m/s | Windspitzen in m/s | Temp.Minima in °C | Temperatur in °C | Temp.Maxima in °C | Luftfeuchte in % | Luftdruck in hPa | Taupunkt in °C | Niederschlag in mm |
|---|---|---|---|---|---|---|---|---|---|---|
| 16:00 | 209,9 | 1,0 | 2,2 | 19,4 | 19,7 | 19,9 | 68,7 | 999,3 | 15,0 | 0,0 |
| 16:10 | 200,1 | 1,1 | 3,6 | 19,5 | 19,7 | 19,9 | 68,5 | 999,2 | 15,0 | 0,0 |
| 16:20 | 163,0 | 0,8 | 2,3 | 19,4 | 19,6 | 19,9 | 70,3 | 999,1 | 15,4 | 0,0 |
| 16:30 | 150,7 | 0,9 | 3,1 | 19,4 | 19,7 | 19,9 | 71,0 | 999,0 | 15,6 | 0,0 |
| 16:40 | 148,5 | 0,9 | 2,6 | 19,4 | 19,6 | 19,9 | 71,1 | 998,9 | 15,6 | 0,0 |
| 16:50 | 176,2 | 0,6 | 1,9 | 19,4 | 19,7 | 19,9 | 70,3 | 998,8 | 15,5 | 0,0 |
| 17:00 | 164,2 | 0,7 | 1,8 | 19,6 | 19,8 | 20,1 | 69,8 | 998,7 | 15,5 | 0,0 |
| 17:10 | 180,5 | 0,8 | 3,3 | 19,5 | 19,8 | 20,1 | 70,1 | 998,6 | 15,5 | 0,0 |
| 17:20 | 203,5 | 1,2 | 3,5 | 19,7 | 19,9 | 20,1 | 68,4 | 998,5 | 15,2 | 0,0 |
| 17:30 | 199,8 | 1,2 | 2,8 | 19,8 | 20,1 | 20,2 | 67,2 | 998,3 | 14,9 | 0,0 |
| 17:40 | 220,7 | 1,5 | 4,2 | 19,7 | 20,0 | 20,2 | 66,6 | 998,3 | 14,8 | 0,0 |
| 17:50 | 212,4 | 1,4 | 4,1 | 19,7 | 20,0 | 20,1 | 66,6 | 998,3 | 14,7 | 0,0 |
| 18:00 | 218,2 | 1,7 | 4,6 | 19,1 | 19,8 | 20,0 | 68,5 | 998,5 | 14,9 | 0,0 |
| 18:10 | 218,2 | 0,9 | 3,8 | 17,8 | 18,4 | 19,1 | 74,9 | 998,4 | 15,2 | 0,0 |
| 18:20 | 196,6 | 0,4 | 1,1 | 17,6 | 17,7 | 17,9 | 79,1 | 998,2 | 15,6 | 0,0 |
| 18:30 | 163,9 | 0,3 | 1,0 | 17,5 | 17,7 | 17,9 | 80,4 | 998,0 | 15,9 | 0,0 |
| 18:40 | 131,4 | 0,5 | 1,2 | 17,6 | 17,8 | 18,0 | 78,4 | 998,1 | 15,5 | 0,0 |
| 18:50 | 149,9 | 0,4 | 1,1 | 17,7 | 17,9 | 18,0 | 79,1 | 998,0 | 15,7 | 0,0 |
| 19:00 | 226,3 | 0,5 | 0,9 | 17,5 | 17,7 | 17,9 | 81,1 | 998,0 | 16,0 | 0,0 |
| 19:10 | 188,5 | 0,4 | 1,0 | 17,3 | 17,4 | 17,6 | 82,5 | 998,1 | 16,0 | 0,0 |
| 19:20 | 134,8 | 0,6 | 1,6 | 17,3 | 17,6 | 17,9 | 81,6 | 998,0 | 16,0 | 0,0 |
| 19:30 | 181,4 | 0,7 | 2,9 | 17,5 | 17,6 | 17,9 | 80,5 | 997,7 | 15,7 | 0,0 |
| 19:40 | 162,8 | 0,5 | 1,2 | 17,5 | 17,6 | 17,8 | 80,8 | 997,7 | 15,9 | 0,0 |
| 19:50 | 183,4 | 0,8 | 2,5 | 17,6 | 17,8 | 18,1 | 80,1 | 997,7 | 15,8 | 0,0 |
| 20:00 | 158,2 | 0,6 | 1,7 | 17,6 | 17,8 | 18,1 | 79,6 | 997,7 | 15,8 | 0,0 |
| 20:10 | 177,4 | 0,7 | 1,9 | 17,7 | 17,9 | 18,2 | 79,1 | 997,7 | 15,7 | 0,0 |
| 20:20 | 187,2 | 0,8 | 2,7 | 17,9 | 18,1 | 18,2 | 78,1 | 997,7 | 15,6 | 0,0 |
| 20:30 | 177,3 | 0,9 | 2,3 | 17,9 | 18,2 | 18,4 | 77,6 | 997,8 | 15,6 | 0,0 |
| 20:40 | 189,2 | 0,9 | 1,9 | 17,9 | 18,1 | 18,3 | 77,4 | 997,8 | 15,5 | 0,0 |
| 20:50 | 198,8 | 1,1 | 3,0 | 17,9 | 18,2 | 18,3 | 77,4 | 997,8 | 15,5 | 0,0 |
| 21:00 | 208,2 | 0,9 | 1,9 | 17,9 | 18,1 | 18,3 | 77,6 | 997,8 | 15,5 | 0,0 |
| 21:10 | 188,2 | 0,9 | 3,0 | 17,9 | 18,1 | 18,3 | 77,8 | 997,6 | 15,5 | 0,0 |
| 21:20 | 151,8 | 0,8 | 3,2 | 17,6 | 17,9 | 18,2 | 78,2 | 997,4 | 15,4 | 0,0 |
| 21:30 | 188,7 | 0,9 | 2,1 | 17,5 | 17,8 | 18,0 | 78,9 | 997,5 | 15,4 | 0,0 |
| 21:40 | 170,9 | 0,9 | 2,1 | 17,4 | 17,6 | 17,8 | 79,5 | 997,5 | 15,5 | 0,0 |
| 21:50 | 175,8 | 1,2 | 3,0 | 17,4 | 17,6 | 17,8 | 79,8 | 997,4 | 15,4 | 0,0 |
| 22:00 | 181,0 | 0,8 | 2,4 | 17,3 | 17,5 | 17,8 | 79,9 | 997,5 | 15,4 | 0,0 |
| 22:10 | 187,0 | 0,8 | 2,2 | 17,3 | 17,5 | 17,7 | 80,2 | 997,5 | 15,4 | 0,0 |
| 22:20 | 190,4 | 0,8 | 2,1 | 17,3 | 17,5 | 17,7 | 80,2 | 997,6 | 15,4 | 0,0 |
| 22:30 | 191,1 | 0,8 | 1,9 | 17,3 | 17,5 | 17,7 | 80,1 | 997,6 | 15,5 | 0,0 |
| 22:40 | 181,3 | 0,8 | 2,3 | 17,3 | 17,5 | 17,7 | 80,0 | 997,6 | 15,4 | 0,0 |
| 22:50 | 160,3 | 0,7 | 1,9 | 17,3 | 17,4 | 17,5 | 80,0 | 997,5 | 15,4 | 0,0 |
| 23:00 | 184,9 | 0,8 | 3,1 | 17,2 | 17,4 | 17,7 | 80,1 | 997,4 | 15,4 | 0,0 |
| 23:10 | 187,8 | 0,8 | 2,3 | 17,2 | 17,5 | 17,7 | 79,9 | 997,4 | 15,4 | 0,0 |
| 23:20 | 188,7 | 0,8 | 2,0 | 17,4 | 17,6 | 17,8 | 79,5 | 997,5 | 15,4 | 0,0 |
| 23:30 | 195,4 | 1,0 | 2,1 | 17,5 | 17,7 | 18,0 | 79,2 | 997,4 | 15,4 | 0,0 |
| 23:40 | 194,2 | 1,0 | 2,8 | 17,6 | 17,8 | 18,0 | 78,5 | 997,3 | 15,4 | 0,0 |
| 23:50 | 203,9 | 1,1 | 3,0 | 17,7 | 17,9 | 18,1 | 78,2 | 997,1 | 15,4 | 0,0 |
| << 28.8. | 30.8. >> |